Time;durP1;ratioP1;P1;durP2;ratioP2;P2;SDS_P1;SDS_P2;PMS_P1;PMS_P2;Temp;Humidity;BMP_temperature;BMP_pressure;BME280_temperature;BME280_humidity;BME280_pressure;Samples;Min_cycle;Max_cycle;Signal;HPM_P1;HPM_P2
2023/03/10 00:02:09;;;;;;;41.90;20.50;;;2.70;99.90;;;;;;5037529;28;20539;-60
2023/03/10 00:04:36;;;;;;;38.30;18.77;;;2.80;99.90;;;;;;5037439;28;20543;-61
2023/03/10 00:07:04;;;;;;;38.30;18.87;;;2.70;99.90;;;;;;5037258;28;20495;-61
2023/03/10 00:09:31;;;;;;;34.07;18.63;;;2.70;99.90;;;;;;5037267;28;20930;-61
2023/03/10 00:11:58;;;;;;;39.17;19.80;;;2.70;99.90;;;;;;5037217;28;20539;-62
2023/03/10 00:14:25;;;;;;;35.70;19.50;;;2.60;99.90;;;;;;5036856;28;20599;-62
2023/03/10 00:16:52;;;;;;;36.43;18.90;;;2.50;99.90;;;;;;5036674;28;20571;-62
2023/03/10 00:19:18;;;;;;;38.80;20.17;;;2.40;99.90;;;;;;5036502;28;20466;-60
2023/03/10 00:21:45;;;;;;;38.90;18.47;;;2.60;99.90;;;;;;5036362;28;20456;-61
2023/03/10 00:24:13;;;;;;;35.73;18.40;;;2.60;99.90;;;;;;5036519;28;20791;-61
2023/03/10 00:26:40;;;;;;;34.70;18.60;;;2.60;99.90;;;;;;5035581;28;20456;-61
2023/03/10 00:29:07;;;;;;;35.73;16.83;;;2.60;99.90;;;;;;5036093;28;21008;-62
2023/03/10 00:31:34;;;;;;;29.30;16.53;;;2.60;99.90;;;;;;5036144;28;20456;-61
2023/03/10 00:34:01;;;;;;;34.30;17.80;;;2.60;99.90;;;;;;5036435;28;20460;-61
2023/03/10 00:36:29;;;;;;;32.73;18.50;;;2.70;99.90;;;;;;5036298;28;20480;-61
2023/03/10 00:38:59;;;;;;;40.40;19.47;;;2.60;99.90;;;;;;5035763;28;20916;-61
2023/03/10 00:41:29;;;;;;;36.30;18.13;;;2.50;99.90;;;;;;5036923;28;20467;-61
2023/03/10 00:43:57;;;;;;;33.50;18.07;;;2.50;99.90;;;;;;5036984;28;20488;-60
2023/03/10 00:46:25;;;;;;;36.70;18.63;;;2.50;99.90;;;;;;5035766;28;20456;-60
2023/03/10 00:48:52;;;;;;;36.93;18.43;;;2.50;99.90;;;;;;5035856;28;20467;-63
2023/03/10 00:51:20;;;;;;;34.33;17.30;;;2.60;99.90;;;;;;5035355;28;20464;-62
2023/03/10 00:53:47;;;;;;;32.83;17.10;;;2.60;99.90;;;;;;5035849;28;20463;-61
2023/03/10 00:56:15;;;;;;;36.33;17.50;;;2.50;99.90;;;;;;5035911;28;20490;-62
2023/03/10 00:58:45;;;;;;;38.43;19.23;;;2.50;99.90;;;;;;5035583;28;20499;-62
2023/03/10 01:01:14;;;;;;;31.93;17.40;;;2.50;99.90;;;;;;5035678;28;20463;-60
2023/03/10 01:03:41;;;;;;;37.73;19.53;;;2.50;99.90;;;;;;5036214;28;20567;-61
2023/03/10 01:06:08;;;;;;;36.63;18.87;;;2.60;99.90;;;;;;5035847;28;20543;-61
2023/03/10 01:08:35;;;;;;;33.73;18.20;;;2.60;99.90;;;;;;5035886;28;20566;-62
2023/03/10 01:11:02;;;;;;;44.93;21.13;;;2.70;99.90;;;;;;5035566;28;20805;-62
2023/03/10 01:13:29;;;;;;;39.57;19.20;;;2.60;99.90;;;;;;5035437;28;20456;-62
2023/03/10 01:15:58;;;;;;;35.43;17.50;;;2.60;99.90;;;;;;5035060;28;20488;-61
2023/03/10 01:18:25;;;;;;;42.60;20.27;;;2.60;99.90;;;;;;5035446;28;20471;-61
2023/03/10 01:20:52;;;;;;;42.63;19.90;;;2.60;99.90;;;;;;5035584;28;20786;-61
2023/03/10 01:23:21;;;;;;;35.73;18.53;;;2.70;99.90;;;;;;5035557;28;20460;-60
2023/03/10 01:25:49;;;;;;;43.30;19.63;;;2.70;99.90;;;;;;5035052;28;20462;-63
2023/03/10 01:28:16;;;;;;;43.30;20.70;;;2.60;99.90;;;;;;5035148;28;20460;-62
2023/03/10 01:30:44;;;;;;;46.43;19.87;;;2.50;99.90;;;;;;5035100;28;20467;-61
2023/03/10 01:33:14;;;;;;;42.60;19.50;;;2.60;99.90;;;;;;5035309;28;20452;-63
2023/03/10 01:35:42;;;;;;;45.63;21.40;;;2.60;99.90;;;;;;5035232;28;20924;-63
2023/03/10 01:38:09;;;;;;;38.30;18.63;;;2.50;99.90;;;;;;5034626;28;20854;-61
2023/03/10 01:40:39;;;;;;;37.03;17.70;;;2.50;99.90;;;;;;5034864;28;20462;-62
2023/03/10 01:43:31;;;;;;;38.60;19.20;;;2.50;99.90;;;;;;5035430;28;20456;-60
2023/03/10 01:46:34;;;;;;;33.60;18.17;;;2.50;99.90;;;;;;5032022;28;20456;-62
2023/03/10 01:49:05;;;;;;;36.90;18.10;;;2.60;99.90;;;;;;5034796;28;20913;-62
2023/03/10 01:51:35;;;;;;;37.50;18.40;;;2.60;99.90;;;;;;5034716;28;20450;-61
2023/03/10 01:54:06;;;;;;;35.30;17.77;;;2.60;99.90;;;;;;5034963;28;20488;-63
2023/03/10 01:56:33;;;;;;;37.60;18.43;;;2.50;99.90;;;;;;5034525;28;20471;-61
2023/03/10 01:59:00;;;;;;;32.63;16.50;;;2.40;99.90;;;;;;5035050;28;20998;-63
2023/03/10 02:01:27;;;;;;;40.07;18.17;;;2.50;99.90;;;;;;5034900;28;20466;-63
2023/03/10 02:04:00;;;;;;;42.50;19.10;;;2.60;99.90;;;;;;5034757;28;20943;-62
2023/03/10 02:06:29;;;;;;;36.43;18.40;;;2.70;99.90;;;;;;5034902;28;20450;-62
2023/03/10 02:08:59;;;;;;;34.20;17.63;;;2.70;99.90;;;;;;5034384;28;20462;-62
2023/03/10 02:11:26;;;;;;;35.33;16.47;;;2.70;99.90;;;;;;5034637;28;20448;-63
2023/03/10 02:13:54;;;;;;;33.37;16.20;;;2.70;99.90;;;;;;5034582;28;20456;-61
2023/03/10 02:16:21;;;;;;;33.97;17.80;;;2.70;99.90;;;;;;5034778;28;20468;-62
2023/03/10 02:18:49;;;;;;;33.13;14.93;;;2.60;99.90;;;;;;5034736;28;20540;-62
2023/03/10 02:21:26;;;;;;;33.77;17.60;;;2.60;99.90;;;;;;5034341;28;20460;-61
2023/03/10 02:24:00;;;;;;;31.87;15.83;;;2.60;99.90;;;;;;5034762;28;20439;-62
2023/03/10 02:26:36;;;;;;;28.90;15.40;;;2.70;99.90;;;;;;5034805;28;20467;-62
2023/03/10 02:29:06;;;;;;;29.70;16.37;;;2.60;99.90;;;;;;5034691;28;20527;-62
2023/03/10 02:31:34;;;;;;;36.80;17.60;;;2.60;99.90;;;;;;5034559;28;20441;-63
2023/03/10 02:34:01;;;;;;;33.83;16.50;;;2.50;99.90;;;;;;5034438;28;20463;-62
2023/03/10 02:36:28;;;;;;;30.93;15.60;;;2.60;99.90;;;;;;5034500;28;20480;-62
2023/03/10 02:38:55;;;;;;;28.07;15.70;;;2.60;99.90;;;;;;5035323;28;20764;-61
2023/03/10 02:41:26;;;;;;;30.00;16.03;;;2.60;99.90;;;;;;5034156;28;20547;-61
2023/03/10 02:43:55;;;;;;;26.30;14.80;;;2.60;99.90;;;;;;5034518;28;20444;-60
2023/03/10 02:46:24;;;;;;;29.73;16.00;;;2.60;99.90;;;;;;5034441;28;20547;-61
2023/03/10 02:48:50;;;;;;;28.37;15.00;;;2.50;99.90;;;;;;5034498;28;20455;-60
2023/03/10 02:51:21;;;;;;;30.13;16.33;;;2.60;99.90;;;;;;5037194;28;20455;-62
2023/03/10 02:53:48;;;;;;;31.53;16.03;;;2.60;99.90;;;;;;5038059;28;20440;-58
2023/03/10 02:56:15;;;;;;;29.87;16.80;;;2.60;99.90;;;;;;5038415;28;20494;-61
2023/03/10 02:58:42;;;;;;;31.50;15.30;;;2.50;99.90;;;;;;5038054;28;20551;-61
2023/03/10 03:01:09;;;;;;;28.00;15.50;;;2.50;99.90;;;;;;5038047;28;20463;-62
2023/03/10 03:03:38;;;;;;;30.00;15.20;;;2.60;99.90;;;;;;5038011;28;20456;-62
2023/03/10 03:06:05;;;;;;;26.07;15.17;;;2.60;99.90;;;;;;5038380;28;20804;-60
2023/03/10 03:08:32;;;;;;;30.63;15.87;;;2.60;99.90;;;;;;5038173;28;20895;-61
2023/03/10 03:11:00;;;;;;;27.60;13.87;;;2.60;99.90;;;;;;5037997;28;20460;-61
2023/03/10 03:13:27;;;;;;;23.30;13.63;;;2.60;99.90;;;;;;5038620;28;20760;-61
2023/03/10 03:15:53;;;;;;;28.33;13.80;;;2.60;99.90;;;;;;5038013;28;20574;-62
2023/03/10 03:18:20;;;;;;;24.80;14.10;;;2.70;99.90;;;;;;5038342;28;20805;-62
2023/03/10 03:20:48;;;;;;;24.93;13.67;;;2.60;99.90;;;;;;5045470;28;20511;-62
2023/03/10 03:23:15;;;;;;;22.87;13.20;;;2.50;99.90;;;;;;5044122;28;20456;-62
2023/03/10 03:25:43;;;;;;;27.67;13.23;;;2.50;99.90;;;;;;5040897;28;20556;-62
2023/03/10 03:28:11;;;;;;;27.60;13.67;;;2.40;99.90;;;;;;5040773;28;20949;-63
2023/03/10 03:30:38;;;;;;;28.13;13.20;;;2.40;99.90;;;;;;5040135;28;20452;-62
2023/03/10 03:33:07;;;;;;;23.40;12.83;;;2.40;99.90;;;;;;5039568;28;20455;-64
2023/03/10 03:35:36;;;;;;;23.67;12.97;;;2.50;99.90;;;;;;5038441;28;20460;-61
2023/03/10 03:38:05;;;;;;;25.47;14.13;;;2.50;99.90;;;;;;5037829;28;20494;-62
2023/03/10 03:40:34;;;;;;;23.40;13.30;;;2.50;99.90;;;;;;5038135;28;20813;-61
2023/03/10 03:43:02;;;;;;;21.57;12.30;;;2.50;99.90;;;;;;5037892;28;20467;-63
2023/03/10 03:45:30;;;;;;;24.13;12.57;;;2.60;99.90;;;;;;5037981;28;20546;-62
2023/03/10 03:47:57;;;;;;;24.40;11.90;;;2.60;99.90;;;;;;5037796;28;20452;-63
2023/03/10 03:50:24;;;;;;;20.33;11.70;;;2.60;99.90;;;;;;5037234;28;20466;-64
2023/03/10 03:52:51;;;;;;;21.27;11.90;;;2.60;99.90;;;;;;5037782;28;20455;-61
2023/03/10 03:55:20;;;;;;;20.37;11.40;;;2.60;99.90;;;;;;5037730;28;20547;-62
2023/03/10 03:57:47;;;;;;;18.17;11.43;;;2.60;99.90;;;;;;5037534;28;20579;-61
2023/03/10 04:00:17;;;;;;;23.37;12.53;;;2.60;99.90;;;;;;5037348;28;20837;-63
2023/03/10 04:02:44;;;;;;;21.10;12.07;;;2.50;99.90;;;;;;5037634;28;20776;-62
2023/03/10 04:05:11;;;;;;;18.67;11.90;;;2.60;99.90;;;;;;5037144;28;20460;-63
2023/03/10 04:07:39;;;;;;;20.03;11.17;;;2.60;99.90;;;;;;5036922;28;20452;-62
2023/03/10 04:10:08;;;;;;;20.13;12.37;;;2.60;99.90;;;;;;5037307;28;20464;-62
2023/03/10 04:12:37;;;;;;;18.33;11.03;;;2.60;99.90;;;;;;5037312;28;20482;-63
2023/03/10 04:15:04;;;;;;;20.87;12.93;;;2.60;99.90;;;;;;5045550;28;20548;-62
2023/03/10 04:17:32;;;;;;;17.93;12.07;;;2.50;99.90;;;;;;5056994;28;20805;-63
2023/03/10 04:19:59;;;;;;;15.93;11.20;;;2.60;99.90;;;;;;5056860;28;20465;-60
2023/03/10 04:22:26;;;;;;;18.10;11.97;;;2.60;99.90;;;;;;5057708;28;20498;-61
2023/03/10 04:24:53;;;;;;;16.13;10.67;;;2.70;99.90;;;;;;5057438;28;20534;-61
2023/03/10 04:27:20;;;;;;;20.80;11.90;;;2.70;99.90;;;;;;5057106;28;20459;-62
2023/03/10 04:29:49;;;;;;;18.43;11.47;;;2.80;99.90;;;;;;5056907;28;20538;-60
2023/03/10 04:32:16;;;;;;;17.93;11.27;;;2.80;99.90;;;;;;5056673;28;20509;-63
2023/03/10 04:34:42;;;;;;;20.47;10.90;;;2.90;99.90;;;;;;5057083;28;20459;-61
2023/03/10 04:37:09;;;;;;;17.07;11.70;;;2.90;99.90;;;;;;5056811;28;20489;-59
2023/03/10 04:39:37;;;;;;;19.03;11.97;;;2.80;99.90;;;;;;5057109;28;20849;-62
2023/03/10 04:42:04;;;;;;;21.43;12.07;;;2.70;99.90;;;;;;5057286;28;20535;-62
2023/03/10 04:44:31;;;;;;;19.87;13.20;;;2.60;99.90;;;;;;5057839;28;20634;-62
2023/03/10 04:47:00;;;;;;;20.77;12.67;;;2.60;99.90;;;;;;5057906;28;20451;-63
2023/03/10 04:49:28;;;;;;;18.60;11.57;;;2.60;99.90;;;;;;5057086;28;20459;-62
2023/03/10 04:51:55;;;;;;;18.83;12.57;;;2.60;99.90;;;;;;5057277;28;20458;-62
2023/03/10 04:54:22;;;;;;;21.53;12.87;;;2.70;99.90;;;;;;5057491;28;20466;-63
2023/03/10 04:56:49;;;;;;;19.13;11.67;;;2.70;99.90;;;;;;5056856;28;20469;-62
2023/03/10 04:59:16;;;;;;;20.00;11.80;;;2.70;99.90;;;;;;5057389;28;20484;-62
2023/03/10 05:01:43;;;;;;;19.40;13.00;;;2.70;99.90;;;;;;5056872;28;20520;-62
2023/03/10 05:04:11;;;;;;;21.30;14.40;;;2.70;99.90;;;;;;5056414;28;20455;-62
2023/03/10 05:06:38;;;;;;;22.47;13.43;;;2.70;99.90;;;;;;5057067;28;20538;-61
2023/03/10 05:09:05;;;;;;;18.63;12.40;;;2.70;99.90;;;;;;5057074;28;20748;-61
2023/03/10 05:11:32;;;;;;;16.73;12.17;;;2.70;99.90;;;;;;5056875;28;20481;-62
2023/03/10 05:13:59;;;;;;;18.53;12.40;;;2.80;99.90;;;;;;5056136;28;20493;-62
2023/03/10 05:16:26;;;;;;;18.20;12.33;;;2.80;99.90;;;;;;5056774;28;20518;-62
2023/03/10 05:18:53;;;;;;;19.60;12.27;;;2.70;99.90;;;;;;5056656;28;20515;-62
2023/03/10 05:21:21;;;;;;;17.90;12.63;;;2.70;99.90;;;;;;5056203;28;20855;-62
2023/03/10 05:23:49;;;;;;;19.37;12.50;;;2.80;99.90;;;;;;5057078;28;20479;-62
2023/03/10 05:26:16;;;;;;;14.73;10.00;;;2.80;99.90;;;;;;5056582;28;20991;-62
2023/03/10 05:28:43;;;;;;;16.10;10.80;;;2.90;99.90;;;;;;5056287;28;20451;-62
2023/03/10 05:31:11;;;;;;;18.53;10.90;;;2.90;99.90;;;;;;5056664;28;20783;-62
2023/03/10 05:33:38;;;;;;;17.20;10.70;;;2.90;99.90;;;;;;5056499;28;20550;-61
2023/03/10 05:36:07;;;;;;;16.87;11.73;;;2.90;99.90;;;;;;5056467;28;20455;-62
2023/03/10 05:38:36;;;;;;;15.70;10.63;;;2.90;99.90;;;;;;5056447;28;20796;-62
2023/03/10 05:41:07;;;;;;;19.93;11.30;;;2.80;99.90;;;;;;5056298;28;20852;-62
2023/03/10 05:43:34;;;;;;;17.73;12.10;;;2.80;99.90;;;;;;5056027;28;20470;-62
2023/03/10 05:46:01;;;;;;;16.63;11.57;;;2.80;99.90;;;;;;5056145;28;20932;-62
2023/03/10 05:48:28;;;;;;;18.70;11.70;;;2.90;99.90;;;;;;5056401;28;20466;-62
2023/03/10 05:50:59;;;;;;;17.57;10.60;;;3.00;99.90;;;;;;5056267;28;20463;-62
2023/03/10 05:53:26;;;;;;;14.50;10.33;;;3.00;99.90;;;;;;5055550;28;20459;-62
2023/03/10 05:55:55;;;;;;;13.90;10.03;;;2.90;99.90;;;;;;5055423;28;20545;-61
2023/03/10 05:58:22;;;;;;;18.17;10.40;;;2.90;99.90;;;;;;5055101;28;20475;-61
2023/03/10 06:00:49;;;;;;;20.33;11.43;;;2.90;99.90;;;;;;5055499;28;20549;-63
2023/03/10 06:03:16;;;;;;;17.17;11.97;;;2.90;99.90;;;;;;5055678;28;20857;-63
2023/03/10 06:05:43;;;;;;;15.63;10.37;;;2.90;99.90;;;;;;5055307;28;20549;-63
2023/03/10 06:08:10;;;;;;;16.23;10.77;;;2.90;99.90;;;;;;5055628;28;20450;-65
2023/03/10 06:10:37;;;;;;;15.00;10.40;;;3.00;99.90;;;;;;5055527;28;20785;-62
2023/03/10 06:13:05;;;;;;;18.37;11.10;;;3.10;99.90;;;;;;5055721;28;20543;-61
2023/03/10 06:15:32;;;;;;;17.20;10.73;;;3.10;99.90;;;;;;5055214;28;20487;-62
2023/03/10 06:17:59;;;;;;;19.30;11.00;;;3.00;99.90;;;;;;5055652;28;20487;-62
2023/03/10 06:20:26;;;;;;;19.07;10.97;;;3.00;99.90;;;;;;5055579;28;20455;-62
2023/03/10 06:22:53;;;;;;;16.30;10.43;;;2.90;99.90;;;;;;5055456;28;20999;-63
2023/03/10 06:25:20;;;;;;;18.47;12.23;;;2.90;99.90;;;;;;5056767;28;20558;-62
2023/03/10 06:27:47;;;;;;;18.00;12.20;;;2.90;99.90;;;;;;5059759;28;20461;-60
2023/03/10 06:30:16;;;;;;;21.70;11.70;;;2.90;99.90;;;;;;5059768;28;20486;-62
2023/03/10 06:32:43;;;;;;;19.10;12.40;;;2.90;99.90;;;;;;5059959;28;20455;-63
2023/03/10 06:35:13;;;;;;;19.93;11.63;;;3.00;99.90;;;;;;5060020;28;20465;-62
2023/03/10 06:37:40;;;;;;;19.07;13.50;;;3.00;99.90;;;;;;5059691;28;20505;-63
2023/03/10 06:40:11;;;;;;;16.97;11.90;;;3.00;99.90;;;;;;5059440;28;20486;-62
2023/03/10 06:42:38;;;;;;;20.97;12.20;;;3.00;99.90;;;;;;5059571;28;20451;-62
2023/03/10 06:45:06;;;;;;;19.43;12.13;;;3.00;99.90;;;;;;5059637;28;20465;-61
2023/03/10 06:47:34;;;;;;;16.37;11.20;;;3.00;99.90;;;;;;5059624;28;20485;-63
2023/03/10 06:50:01;;;;;;;19.03;13.20;;;3.10;99.90;;;;;;5059210;28;21018;-63
2023/03/10 06:52:28;;;;;;;18.33;12.40;;;3.10;99.90;;;;;;5059434;28;20923;-61
2023/03/10 06:54:55;;;;;;;19.20;12.57;;;3.10;99.90;;;;;;5059426;28;20454;-61
2023/03/10 06:57:22;;;;;;;19.30;12.43;;;3.10;99.90;;;;;;5059566;28;20488;-62
2023/03/10 06:59:49;;;;;;;22.93;13.60;;;3.20;99.90;;;;;;5059039;28;20838;-63
2023/03/10 07:02:16;;;;;;;19.23;13.70;;;3.10;99.90;;;;;;5059284;28;20455;-63
2023/03/10 07:04:44;;;;;;;20.23;13.87;;;3.20;99.90;;;;;;5058615;28;20463;-60
2023/03/10 07:07:11;;;;;;;19.07;13.53;;;3.40;99.90;;;;;;5058424;28;20459;-61
2023/03/10 07:09:37;;;;;;;21.70;13.27;;;3.40;99.90;;;;;;5058656;28;20486;-62
2023/03/10 07:12:05;;;;;;;21.97;13.10;;;3.40;99.90;;;;;;5059056;28;20464;-62
2023/03/10 07:14:32;;;;;;;23.50;14.27;;;3.30;99.90;;;;;;5058093;28;20479;-62
2023/03/10 07:16:59;;;;;;;16.47;11.67;;;3.30;99.90;;;;;;5057447;28;20454;-62
2023/03/10 07:19:26;;;;;;;20.97;13.43;;;3.40;99.90;;;;;;5057430;28;20493;-62
2023/03/10 07:21:54;;;;;;;19.37;12.47;;;3.60;99.90;;;;;;5056712;28;20466;-62
2023/03/10 07:24:21;;;;;;;23.43;14.80;;;3.60;99.90;;;;;;5057245;28;20550;-60
2023/03/10 07:26:48;;;;;;;22.53;14.20;;;3.60;99.90;;;;;;5056977;28;20533;-62
2023/03/10 07:29:14;;;;;;;20.47;13.47;;;3.60;99.90;;;;;;5056760;28;20455;-62
2023/03/10 07:31:44;;;;;;;19.70;13.73;;;3.70;99.90;;;;;;5055158;28;21017;-62
2023/03/10 07:34:10;;;;;;;24.13;16.37;;;3.80;99.90;;;;;;5056536;28;20546;-62
2023/03/10 07:36:37;;;;;;;23.07;15.03;;;3.70;99.90;;;;;;5056913;28;20791;-59
2023/03/10 07:39:05;;;;;;;27.87;19.03;;;3.60;99.90;;;;;;5056793;28;20511;-63
2023/03/10 07:41:32;;;;;;;24.40;14.90;;;3.60;99.90;;;;;;5055338;28;20475;-62
2023/03/10 07:43:59;;;;;;;23.43;14.23;;;3.70;99.90;;;;;;5057053;28;20524;-62
2023/03/10 07:46:26;;;;;;;25.53;15.00;;;3.80;99.90;;;;;;5056567;28;20523;-62
2023/03/10 07:48:53;;;;;;;21.60;14.53;;;3.70;99.90;;;;;;5056636;28;20467;-62
2023/03/10 07:51:20;;;;;;;21.23;14.67;;;3.80;99.90;;;;;;5056759;28;20516;-62
2023/03/10 07:53:47;;;;;;;29.73;17.60;;;3.90;99.90;;;;;;5036781;28;20503;-60
2023/03/10 07:56:17;;;;;;;24.20;15.50;;;3.90;99.90;;;;;;5036628;28;20456;-60
2023/03/10 07:58:44;;;;;;;25.77;18.17;;;3.90;99.90;;;;;;5036336;28;20982;-61
2023/03/10 08:01:15;;;;;;;28.10;17.80;;;3.90;99.90;;;;;;5036576;28;20452;-62
2023/03/10 08:03:42;;;;;;;31.00;19.17;;;3.90;99.90;;;;;;5036407;28;20769;-61
2023/03/10 08:06:09;;;;;;;27.00;15.57;;;4.10;99.90;;;;;;5035994;28;20551;-61
2023/03/10 08:08:35;;;;;;;24.00;15.80;;;4.00;99.90;;;;;;5036071;28;20452;-62
2023/03/10 08:11:03;;;;;;;23.63;14.03;;;3.90;99.90;;;;;;5036617;28;20456;-62
2023/03/10 08:13:32;;;;;;;23.83;16.20;;;3.90;99.90;;;;;;5036169;28;20464;-62
2023/03/10 08:16:00;;;;;;;20.90;15.77;;;3.90;99.90;;;;;;4999251;28;1095847;-62
2023/03/10 08:18:28;;;;;;;30.43;19.27;;;3.90;99.90;;;;;;5037290;28;20221;-60
2023/03/10 08:20:55;;;;;;;25.70;15.80;;;3.90;99.90;;;;;;5037231;28;20856;-63
2023/03/10 08:23:22;;;;;;;27.03;16.23;;;4.10;99.90;;;;;;5036626;28;20460;-61
2023/03/10 08:25:49;;;;;;;24.97;17.97;;;4.20;99.90;;;;;;5036860;28;20843;-62
2023/03/10 08:28:16;;;;;;;26.43;17.37;;;4.30;99.90;;;;;;5036867;28;20452;-62
2023/03/10 08:30:44;;;;;;;26.77;17.13;;;4.30;99.90;;;;;;5036793;28;20474;-63
2023/03/10 08:33:11;;;;;;;25.30;16.80;;;4.40;99.90;;;;;;5037071;28;20456;-63
2023/03/10 08:35:38;;;;;;;25.13;17.47;;;4.40;99.90;;;;;;5036981;28;20538;-60
2023/03/10 08:38:05;;;;;;;40.87;24.30;;;4.50;99.90;;;;;;5036663;28;20495;-63
2023/03/10 08:40:32;;;;;;;26.03;18.07;;;4.40;99.90;;;;;;5037200;28;20635;-62
2023/03/10 08:42:59;;;;;;;24.83;15.97;;;4.40;99.90;;;;;;5037365;28;20547;-60
2023/03/10 08:45:26;;;;;;;23.80;17.10;;;4.40;99.90;;;;;;5037747;28;20484;-61
2023/03/10 08:47:54;;;;;;;28.43;19.27;;;4.60;99.90;;;;;;5037570;28;20531;-62
2023/03/10 08:50:21;;;;;;;23.70;17.37;;;4.70;99.90;;;;;;5038672;28;20523;-63
2023/03/10 08:52:48;;;;;;;28.93;18.10;;;4.70;99.90;;;;;;5038216;28;20491;-62
2023/03/10 08:55:15;;;;;;;29.37;18.97;;;4.70;99.90;;;;;;5036593;28;20460;-61
2023/03/10 08:57:42;;;;;;;28.40;19.37;;;4.60;99.90;;;;;;5037217;28;20467;-62
2023/03/10 09:00:11;;;;;;;23.40;17.57;;;4.60;99.90;;;;;;5037433;28;20567;-62
2023/03/10 09:02:38;;;;;;;27.70;17.47;;;4.60;99.90;;;;;;5037706;28;20844;-64
2023/03/10 09:05:07;;;;;;;51.80;30.40;;;4.60;99.90;;;;;;5038419;28;20905;-61
2023/03/10 09:07:34;;;;;;;28.90;17.90;;;4.60;99.90;;;;;;5037655;28;20551;-63
2023/03/10 09:10:01;;;;;;;25.80;17.53;;;4.50;99.90;;;;;;5059083;28;20455;-62
2023/03/10 09:12:27;;;;;;;27.07;16.13;;;4.40;99.90;;;;;;5043429;28;20455;-59
2023/03/10 09:14:54;;;;;;;25.83;17.23;;;4.40;99.90;;;;;;5038202;28;20846;-61
2023/03/10 09:17:21;;;;;;;27.07;17.50;;;4.40;99.90;;;;;;5038356;28;20471;-63
2023/03/10 09:19:48;;;;;;;27.60;20.40;;;4.40;99.90;;;;;;5037692;28;20486;-61
2023/03/10 09:22:16;;;;;;;31.77;19.90;;;4.40;99.90;;;;;;5036435;28;20920;-63
2023/03/10 09:24:43;;;;;;;29.27;19.77;;;4.40;99.90;;;;;;5036326;28;20475;-61
2023/03/10 09:27:10;;;;;;;25.87;18.33;;;4.50;99.90;;;;;;5035956;28;20601;-62
2023/03/10 09:29:37;;;;;;;25.70;18.00;;;4.60;99.90;;;;;;5035856;28;20511;-62
2023/03/10 09:32:04;;;;;;;25.27;17.40;;;4.70;99.90;;;;;;5036017;28;20558;-62
2023/03/10 09:34:31;;;;;;;26.87;18.97;;;5.00;99.90;;;;;;5035989;28;20543;-62
2023/03/10 09:36:58;;;;;;;27.20;19.07;;;5.20;99.90;;;;;;5036239;28;20456;-63
2023/03/10 09:39:26;;;;;;;27.07;18.87;;;5.30;99.90;;;;;;5035653;28;20811;-62
2023/03/10 09:42:11;;;;;;;27.20;19.97;;;5.40;99.90;;;;;;5035169;28;20920;-63
2023/03/10 09:44:42;;;;;;;30.40;20.27;;;5.70;99.90;;;;;;5035741;28;20531;-62
2023/03/10 09:47:35;;;;;;;30.40;18.97;;;5.70;99.90;;;;;;5035242;28;20487;-63
2023/03/10 09:50:20;;;;;;;25.30;17.80;;;5.80;99.90;;;;;;5034800;28;20777;-63
2023/03/10 09:52:52;;;;;;;27.63;18.40;;;5.90;99.90;;;;;;5034995;28;20545;-60
2023/03/10 09:55:23;;;;;;;30.10;19.20;;;6.10;99.90;;;;;;5035096;28;20845;-63
2023/03/10 09:57:52;;;;;;;26.83;19.17;;;6.30;99.90;;;;;;5034880;28;20436;-62
2023/03/10 10:00:23;;;;;;;21.23;16.60;;;6.10;99.90;;;;;;5034480;28;20490;-62
2023/03/10 10:02:59;;;;;;;19.17;15.07;;;6.10;99.90;;;;;;5034938;28;20455;-62
2023/03/10 10:05:30;;;;;;;22.40;15.90;;;6.10;99.90;;;;;;5035187;28;20465;-62
2023/03/10 10:07:59;;;;;;;20.40;15.17;;;6.10;99.90;;;;;;5035288;28;20440;-63
2023/03/10 10:10:29;;;;;;;21.70;15.87;;;6.00;99.90;;;;;;5035012;28;20444;-63
2023/03/10 10:13:01;;;;;;;20.93;15.20;;;5.90;99.90;;;;;;5034953;28;20466;-62
2023/03/10 10:15:30;;;;;;;21.30;14.60;;;5.90;99.90;;;;;;5035029;28;20490;-59
2023/03/10 10:18:07;;;;;;;21.47;15.60;;;6.00;99.90;;;;;;5035283;28;20464;-61
2023/03/10 10:20:37;;;;;;;36.10;23.33;;;6.10;99.90;;;;;;5035405;28;20472;-62
2023/03/10 10:23:13;;;;;;;26.20;19.80;;;6.20;99.90;;;;;;5034636;28;20463;-62
2023/03/10 10:25:41;;;;;;;22.53;16.93;;;6.20;99.90;;;;;;5034701;28;20987;-62
2023/03/10 10:28:23;;;;;;;21.27;14.67;;;6.10;99.90;;;;;;5035297;28;20506;-59
2023/03/10 10:30:50;;;;;;;21.37;14.90;;;6.20;99.90;;;;;;5035117;28;20447;-63
2023/03/10 10:33:17;;;;;;;25.00;15.97;;;6.20;99.90;;;;;;5034581;28;20459;-59
2023/03/10 10:35:58;;;;;;;23.10;15.83;;;6.30;99.90;;;;;;5034976;28;20472;-60
2023/03/10 10:38:28;;;;;;;23.87;15.93;;;6.20;99.90;;;;;;5034777;28;20527;-61
2023/03/10 10:41:01;;;;;;;21.73;16.13;;;6.30;99.90;;;;;;5034668;28;20537;-63
2023/03/10 10:43:29;;;;;;;24.20;15.60;;;6.40;99.90;;;;;;5034808;28;20456;-60
2023/03/10 10:45:58;;;;;;;21.10;16.27;;;6.50;99.90;;;;;;5035569;28;20460;-61
2023/03/10 10:48:37;;;;;;;21.67;16.37;;;6.60;99.90;;;;;;5035326;28;20463;-63
2023/03/10 10:51:05;;;;;;;22.40;17.10;;;6.60;99.90;;;;;;5034423;28;20444;-63
2023/03/10 10:53:33;;;;;;;29.37;19.17;;;6.70;99.90;;;;;;5035327;28;20542;-63
2023/03/10 10:56:05;;;;;;;23.97;16.40;;;6.80;99.90;;;;;;5035022;28;20476;-62
2023/03/10 10:58:34;;;;;;;25.23;17.33;;;6.80;99.90;;;;;;5034597;28;20851;-59
2023/03/10 11:01:03;;;;;;;24.30;18.50;;;6.90;99.90;;;;;;5035144;28;20501;-63
2023/03/10 11:03:32;;;;;;;23.00;16.57;;;7.00;99.90;;;;;;5035683;28;20485;-61
2023/03/10 11:06:00;;;;;;;24.43;16.80;;;7.00;99.90;;;;;;5035680;28;20460;-61
2023/03/10 11:08:36;;;;;;;27.67;18.60;;;7.10;99.90;;;;;;5036564;28;20631;-64
2023/03/10 11:11:16;;;;;;;25.30;18.67;;;7.20;99.90;;;;;;5036196;28;20792;-62
2023/03/10 11:14:04;;;;;;;20.90;16.03;;;7.30;99.90;;;;;;5038651;28;20446;-60
2023/03/10 11:16:42;;;;;;;18.83;14.17;;;7.20;99.90;;;;;;5039046;28;20450;-61
2023/03/10 11:19:16;;;;;;;18.90;14.57;;;7.20;99.90;;;;;;5039520;28;20499;-62
2023/03/10 11:21:47;;;;;;;23.30;16.77;;;7.20;99.90;;;;;;5039804;28;20482;-63
2023/03/10 11:24:21;;;;;;;20.23;14.50;;;7.10;99.90;;;;;;5039307;28;20778;-63
2023/03/10 11:26:54;;;;;;;21.03;15.20;;;7.10;99.90;;;;;;5039670;28;20448;-63
2023/03/10 11:29:35;;;;;;;24.80;17.53;;;7.30;99.90;;;;;;5039706;28;20903;-62
2023/03/10 11:32:12;;;;;;;21.03;15.30;;;7.20;99.90;;;;;;5040397;28;20527;-63
2023/03/10 11:34:43;;;;;;;17.50;14.90;;;7.20;99.90;;;;;;5039872;28;20440;-61
2023/03/10 11:37:23;;;;;;;17.53;14.43;;;7.20;99.90;;;;;;5040677;28;20476;-61
2023/03/10 11:40:06;;;;;;;21.37;15.00;;;7.30;99.90;;;;;;5040455;28;20944;-62
2023/03/10 11:42:39;;;;;;;20.00;14.20;;;7.10;99.90;;;;;;5041771;28;20757;-62
2023/03/10 11:45:22;;;;;;;17.07;12.73;;;7.10;99.90;;;;;;5041236;28;20809;-62
2023/03/10 11:48:02;;;;;;;21.07;13.00;;;7.10;99.90;;;;;;5039698;28;20527;-63
2023/03/10 11:50:36;;;;;;;14.70;11.80;;;7.30;99.90;;;;;;5041099;28;20440;-61
2023/03/10 11:53:11;;;;;;;15.43;11.90;;;7.10;99.90;;;;;;5041814;28;20554;-60
2023/03/10 11:55:39;;;;;;;18.23;13.13;;;7.20;99.90;;;;;;5040130;28;20911;-62
2023/03/10 11:58:21;;;;;;;14.67;12.93;;;7.20;99.90;;;;;;5040684;28;20451;-61
2023/03/10 12:00:51;;;;;;;17.23;12.00;;;7.10;99.90;;;;;;5041374;28;20464;-61
2023/03/10 12:03:27;;;;;;;18.27;13.60;;;7.10;99.90;;;;;;5040938;28;20470;-61
2023/03/10 12:05:57;;;;;;;14.50;12.93;;;7.10;99.90;;;;;;5041616;28;20500;-63
2023/03/10 12:08:29;;;;;;;19.00;13.10;;;7.00;99.90;;;;;;5041213;28;20483;-63
2023/03/10 12:10:59;;;;;;;19.53;13.73;;;7.00;99.90;;;;;;5041140;28;20450;-63
2023/03/10 12:13:32;;;;;;;18.30;14.60;;;6.90;99.90;;;;;;5040344;28;20466;-62
2023/03/10 12:16:03;;;;;;;15.63;12.47;;;7.00;99.90;;;;;;5040102;28;20574;-59
2023/03/10 12:18:30;;;;;;;19.50;14.30;;;7.00;99.90;;;;;;5040635;28;20468;-63
2023/03/10 12:21:15;;;;;;;17.17;13.70;;;7.00;99.90;;;;;;5041451;28;20572;-63
2023/03/10 12:23:44;;;;;;;18.40;14.57;;;7.00;99.90;;;;;;5040250;28;20475;-59
2023/03/10 12:26:11;;;;;;;19.10;14.57;;;6.90;99.90;;;;;;5041608;28;20452;-63
2023/03/10 12:28:39;;;;;;;15.43;11.80;;;6.90;99.90;;;;;;5039487;28;20870;-61
2023/03/10 12:31:09;;;;;;;14.23;11.70;;;7.00;99.90;;;;;;5039409;28;20452;-60
2023/03/10 12:33:41;;;;;;;18.83;13.30;;;7.00;99.90;;;;;;5039931;28;20492;-60
2023/03/10 12:36:11;;;;;;;20.37;13.40;;;7.00;99.90;;;;;;5041428;28;20939;-62
2023/03/10 12:38:48;;;;;;;18.30;13.90;;;7.00;99.90;;;;;;5040910;28;20570;-63
2023/03/10 12:41:47;;;;;;;15.97;11.17;;;7.10;99.90;;;;;;5040402;28;20476;-61
2023/03/10 12:44:50;;;;;;;15.07;9.80;;;6.90;99.90;;;;;;5040373;28;20539;-58
2023/03/10 12:47:26;;;;;;;12.37;10.03;;;6.90;99.90;;;;;;5039402;28;20518;-62